Time;durP1;ratioP1;P1;durP2;ratioP2;P2;SDS_P1;SDS_P2;PMS_P1;PMS_P2;Temp;Humidity;BMP_temperature;BMP_pressure;BME280_temperature;BME280_humidity;BME280_pressure;Samples;Min_cycle;Max_cycle;Signal;HPM_P1;HPM_P2
2023/05/06 00:00:08;;;;;;;17.73;10.47;;;;;;;10.31;100.00;100852.38;684272;28;1177;-76
2023/05/06 00:00:37;;;;;;;16.38;10.48;;;;;;;10.31;100.00;100838.44;685019;28;834;-76
2023/05/06 00:01:00;;;;;;;16.42;10.20;;;;;;;10.30;100.00;100842.81;682501;28;4976;-76
2023/05/06 00:01:20;;;;;;;16.95;9.90;;;;;;;10.31;100.00;100843.66;687742;28;966;-76
2023/05/06 00:01:41;;;;;;;16.77;10.53;;;;;;;10.29;100.00;100841.06;685032;28;1223;-76
2023/05/06 00:02:02;;;;;;;15.90;10.07;;;;;;;10.31;100.00;100838.44;684355;28;1287;-77
2023/05/06 00:02:24;;;;;;;15.57;10.27;;;;;;;10.30;100.00;100844.53;687336;28;976;-76
2023/05/06 00:02:45;;;;;;;15.60;10.32;;;;;;;10.28;100.00;100844.53;685066;28;1019;-76
2023/05/06 00:03:06;;;;;;;17.48;10.80;;;;;;;10.29;100.00;100837.59;688734;28;873;-76
2023/05/06 00:03:27;;;;;;;15.70;10.10;;;;;;;10.30;100.00;100847.16;690461;28;2482;-76
2023/05/06 00:03:47;;;;;;;15.33;9.60;;;;;;;10.31;100.00;100846.28;688247;28;4328;-76
2023/05/06 00:04:08;;;;;;;15.75;10.18;;;;;;;10.28;100.00;100843.69;691174;28;2578;-76
2023/05/06 00:04:28;;;;;;;16.07;10.47;;;;;;;10.27;100.00;100832.34;684812;28;1226;-76
2023/05/06 00:04:49;;;;;;;15.65;10.18;;;;;;;10.29;100.00;100858.50;686346;28;2704;-76
2023/05/06 00:05:09;;;;;;;15.43;10.27;;;;;;;10.29;100.00;100843.66;685491;28;1257;-76
2023/05/06 00:05:30;;;;;;;15.80;10.13;;;;;;;10.29;100.00;100840.19;685165;28;1311;-76
2023/05/06 00:05:51;;;;;;;16.75;10.50;;;;;;;10.28;100.00;100846.28;687386;28;1109;-76
2023/05/06 00:06:11;;;;;;;17.92;10.55;;;;;;;10.28;100.00;100841.06;684625;28;2562;-76
2023/05/06 00:06:32;;;;;;;17.13;10.00;;;;;;;10.29;100.00;100840.19;689343;28;1149;-76
2023/05/06 00:06:53;;;;;;;16.20;9.95;;;;;;;10.29;100.00;100838.44;685470;28;4281;-76
2023/05/06 00:07:13;;;;;;;15.07;9.53;;;;;;;10.30;100.00;100844.53;687402;28;1208;-76
2023/05/06 00:07:33;;;;;;;16.42;10.02;;;;;;;10.29;100.00;100838.44;687431;28;1201;-76
2023/05/06 00:07:54;;;;;;;16.73;9.87;;;;;;;10.29;100.00;100840.19;685183;28;1280;-76
2023/05/06 00:08:15;;;;;;;16.27;9.80;;;;;;;10.29;100.00;100840.19;689230;28;1330;-76
2023/05/06 00:08:35;;;;;;;16.10;10.18;;;;;;;10.29;100.00;100841.06;687530;28;1391;-76
2023/05/06 00:08:56;;;;;;;15.83;10.33;;;;;;;10.28;100.00;100833.22;681340;28;1201;-76
2023/05/06 00:09:19;;;;;;;16.80;10.07;;;;;;;10.29;100.00;100840.19;683008;28;1035;-76
2023/05/06 00:09:45;;;;;;;16.42;10.07;;;;;;;10.29;100.00;100837.59;682526;28;4333;-76
2023/05/06 00:10:06;;;;;;;17.75;10.55;;;;;;;10.28;100.00;100841.06;682510;28;2559;-76
2023/05/06 00:10:26;;;;;;;16.83;10.40;;;;;;;10.28;100.00;100860.22;687801;28;1607;-76
2023/05/06 00:10:47;;;;;;;16.60;10.20;;;;;;;10.28;100.00;100838.44;686791;28;908;-76
2023/05/06 00:11:07;;;;;;;16.37;10.30;;;;;;;10.27;100.00;100839.31;684667;28;1157;-76
2023/05/06 00:11:28;;;;;;;15.93;9.93;;;;;;;10.25;100.00;100839.31;688075;28;1201;-76
2023/05/06 00:11:49;;;;;;;15.27;9.83;;;;;;;10.27;100.00;100842.78;683719;28;1899;-76
2023/05/06 00:12:10;;;;;;;14.35;9.57;;;;;;;10.26;100.00;100841.06;689736;28;1246;-76
2023/05/06 00:12:30;;;;;;;14.68;9.85;;;;;;;10.28;100.00;100848.91;690861;28;1011;-76
2023/05/06 00:12:50;;;;;;;15.13;9.83;;;;;;;10.27;100.00;100847.16;683546;28;4295;-76
2023/05/06 00:13:13;;;;;;;17.23;10.35;;;;;;;10.26;100.00;100842.78;687905;28;1197;-76
2023/05/06 00:13:33;;;;;;;18.47;10.40;;;;;;;10.26;100.00;100841.06;687493;28;2404;-76
2023/05/06 00:13:53;;;;;;;14.77;10.00;;;;;;;10.26;100.00;100845.41;688728;28;1183;-76
2023/05/06 00:14:14;;;;;;;15.07;9.90;;;;;;;10.26;100.00;100840.19;687567;28;1239;-76
2023/05/06 00:14:34;;;;;;;17.05;10.32;;;;;;;10.26;100.00;100834.94;685394;28;1226;-76
2023/05/06 00:14:55;;;;;;;15.77;10.53;;;;;;;10.26;100.00;100835.84;681529;28;1212;-76
2023/05/06 00:15:21;;;;;;;17.02;10.30;;;;;;;10.22;100.00;100855.88;682060;29;1433;-76
2023/05/06 00:15:44;;;;;;;17.07;9.90;;;;;;;10.22;100.00;100829.75;681418;29;4318;-76
2023/05/06 00:16:04;;;;;;;17.23;10.35;;;;;;;10.23;100.00;100834.09;683919;28;2548;-76
2023/05/06 00:16:25;;;;;;;17.50;10.10;;;;;;;10.22;100.00;100853.25;687357;28;3310;-76
2023/05/06 00:16:45;;;;;;;16.38;9.75;;;;;;;10.22;100.00;100834.97;688317;28;1054;-76
2023/05/06 00:17:05;;;;;;;16.70;10.27;;;;;;;10.22;100.00;100834.97;688885;28;1098;-76
2023/05/06 00:17:26;;;;;;;16.15;10.07;;;;;;;10.21;100.00;100830.59;685126;28;1167;-76
2023/05/06 00:17:46;;;;;;;16.17;9.87;;;;;;;10.19;100.00;100832.34;681332;28;1259;-76
2023/05/06 00:18:07;;;;;;;16.25;10.18;;;;;;;10.21;100.00;100832.34;682597;29;898;-76
2023/05/06 00:18:27;;;;;;;15.30;10.27;;;;;;;10.22;100.00;100834.97;684788;28;1212;-76
2023/05/06 00:18:48;;;;;;;15.95;10.18;;;;;;;10.21;100.00;100834.97;685816;28;4578;-76
2023/05/06 00:19:08;;;;;;;15.07;9.90;;;;;;;10.18;100.00;100834.97;687882;28;916;-76
2023/05/06 00:19:29;;;;;;;15.00;9.60;;;;;;;10.15;100.00;100838.44;687982;28;782;-76
2023/05/06 00:19:52;;;;;;;16.17;10.30;;;;;;;10.15;100.00;100835.84;686622;28;2320;-76
2023/05/06 00:20:13;;;;;;;15.85;10.00;;;;;;;10.13;100.00;100828.88;686648;28;1015;-76
2023/05/06 00:20:34;;;;;;;14.85;8.73;;;;;;;10.13;100.00;100829.72;687544;28;1277;-76
2023/05/06 00:20:54;;;;;;;14.57;9.27;;;;;;;10.15;100.00;100833.22;686755;28;1334;-76
2023/05/06 00:21:15;;;;;;;14.87;9.60;;;;;;;10.13;100.00;100834.97;688149;28;1241;-76
2023/05/06 00:21:35;;;;;;;14.48;9.63;;;;;;;10.12;100.00;100828.00;686083;28;1327;-76
2023/05/06 00:21:56;;;;;;;14.30;9.37;;;;;;;10.11;100.00;100826.25;684726;28;4530;-76
2023/05/06 00:22:16;;;;;;;13.23;9.30;;;;;;;10.13;100.00;100832.34;689402;28;1063;-76
2023/05/06 00:22:37;;;;;;;13.10;9.13;;;;;;;10.12;100.00;100832.34;685798;28;1358;-76
2023/05/06 00:22:58;;;;;;;13.77;9.02;;;;;;;10.11;100.00;100828.88;685496;28;1267;-76
2023/05/06 00:23:18;;;;;;;13.82;8.63;;;;;;;10.11;100.00;100820.19;685362;28;1459;-76
2023/05/06 00:23:38;;;;;;;15.50;9.47;;;;;;;10.11;100.00;100825.41;685676;28;1370;-76
2023/05/06 00:23:59;;;;;;;17.27;9.77;;;;;;;10.09;100.00;100837.59;683260;28;2354;-76
2023/05/06 00:24:19;;;;;;;16.23;9.57;;;;;;;10.07;100.00;100829.75;685024;28;917;-76
2023/05/06 00:24:40;;;;;;;16.00;9.93;;;;;;;10.07;100.00;100823.66;688097;28;4316;-76
2023/05/06 00:25:00;;;;;;;16.20;10.25;;;;;;;10.08;100.00;100822.78;686600;28;1439;-76
2023/05/06 00:25:21;;;;;;;15.23;9.65;;;;;;;10.08;100.00;100846.28;685480;28;1240;-76
2023/05/06 00:25:45;;;;;;;16.90;11.07;;;;;;;10.07;100.00;100821.91;688138;28;1261;-76
2023/05/06 00:26:08;;;;;;;15.02;10.48;;;;;;;10.10;100.00;100826.28;688050;28;1258;-76
2023/05/06 00:26:29;;;;;;;15.02;10.15;;;;;;;10.09;100.00;100819.28;687959;28;984;-76
2023/05/06 00:26:50;;;;;;;14.95;9.65;;;;;;;10.07;100.00;100829.75;683362;28;2527;-76
2023/05/06 00:27:10;;;;;;;14.13;9.20;;;;;;;10.06;100.00;100820.16;686852;28;774;-76
2023/05/06 00:27:33;;;;;;;13.52;9.27;;;;;;;10.07;100.00;100819.31;690967;28;1277;-76
2023/05/06 00:27:54;;;;;;;14.32;9.75;;;;;;;10.08;100.00;100828.00;683831;28;4328;-76
2023/05/06 00:28:14;;;;;;;16.77;9.77;;;;;;;10.08;100.00;100820.16;687501;28;914;-76
2023/05/06 00:28:35;;;;;;;15.70;9.60;;;;;;;10.06;100.00;100822.78;688821;28;1365;-76
2023/05/06 00:28:55;;;;;;;14.00;9.43;;;;;;;10.04;100.00;100816.69;686581;28;1303;-76
2023/05/06 00:29:16;;;;;;;14.83;9.93;;;;;;;10.03;100.00;100818.41;691272;28;1097;-76
2023/05/06 00:29:36;;;;;;;15.55;9.52;;;;;;;10.02;100.00;100819.31;691568;28;939;-76
2023/05/06 00:29:57;;;;;;;15.13;9.43;;;;;;;10.03;100.00;100814.94;687849;28;2393;-76
2023/05/06 00:30:18;;;;;;;15.23;10.02;;;;;;;10.01;100.00;100821.91;690574;28;1291;-76
2023/05/06 00:30:38;;;;;;;15.40;9.73;;;;;;;9.99;100.00;100808.84;689170;28;4338;-77
2023/05/06 00:30:59;;;;;;;16.57;10.53;;;;;;;10.00;100.00;100821.03;683610;28;1373;-76
2023/05/06 00:31:19;;;;;;;16.35;10.45;;;;;;;10.02;100.00;100815.81;686883;28;1149;-76
2023/05/06 00:31:39;;;;;;;17.63;10.50;;;;;;;10.01;100.00;100808.84;687125;28;1930;-75
2023/05/06 00:32:00;;;;;;;14.82;9.90;;;;;;;10.00;100.00;100814.97;683666;28;1366;-76
2023/05/06 00:32:20;;;;;;;16.20;9.53;;;;;;;9.98;100.00;100817.56;684422;28;1149;-76
2023/05/06 00:32:41;;;;;;;15.57;9.57;;;;;;;9.97;100.00;100809.72;685054;28;1110;-76
2023/05/06 00:33:01;;;;;;;16.17;9.70;;;;;;;9.98;100.00;100834.97;683533;28;1253;-76
2023/05/06 00:33:25;;;;;;;15.32;9.70;;;;;;;9.97;100.00;100812.31;686610;28;1391;-76
2023/05/06 00:33:45;;;;;;;15.73;9.98;;;;;;;9.99;100.00;100826.25;686052;28;4433;-76
2023/05/06 00:34:06;;;;;;;14.85;9.88;;;;;;;9.97;100.00;100822.75;688583;28;1336;-76
2023/05/06 00:34:27;;;;;;;17.15;10.10;;;;;;;9.99;100.00;100845.41;686944;28;2486;-76
2023/05/06 00:34:47;;;;;;;16.43;9.77;;;;;;;9.98;100.00;100807.13;686883;28;1007;-76
2023/05/06 00:35:11;;;;;;;15.55;9.95;;;;;;;9.98;100.00;100808.84;681295;28;2698;-76
2023/05/06 00:35:31;;;;;;;14.13;9.77;;;;;;;9.99;100.00;100836.72;685035;28;1249;-76
2023/05/06 00:35:54;;;;;;;16.50;10.32;;;;;;;9.98;100.00;100837.56;686924;28;1341;-76
2023/05/06 00:36:15;;;;;;;16.67;10.43;;;;;;;9.95;100.00;100821.91;689903;28;1307;-75
2023/05/06 00:36:36;;;;;;;16.52;10.48;;;;;;;9.97;100.00;100836.72;687723;28;1399;-76
2023/05/06 00:36:59;;;;;;;16.00;10.05;;;;;;;9.96;100.00;100808.00;685830;28;4327;-76
2023/05/06 00:37:20;;;;;;;16.48;9.68;;;;;;;9.99;100.00;100831.47;687499;28;802;-76
2023/05/06 00:37:47;;;;;;;15.85;9.95;;;;;;;10.01;100.00;100806.22;692540;28;1313;-76
2023/05/06 00:38:14;;;;;;;15.77;10.57;;;;;;;10.01;100.00;100848.00;689813;28;1455;-76
2023/05/06 00:38:38;;;;;;;17.13;10.48;;;;;;;9.99;100.00;100806.22;692877;28;1299;-76
2023/05/06 00:38:59;;;;;;;16.75;11.00;;;;;;;9.98;100.00;100845.41;687916;28;1278;-76
2023/05/06 00:39:20;;;;;;;16.10;10.80;;;;;;;9.99;100.00;100827.13;687363;28;1159;-76
2023/05/06 00:39:40;;;;;;;15.48;10.23;;;;;;;10.02;100.00;100805.34;691188;28;4377;-76
2023/05/06 00:40:04;;;;;;;16.00;10.07;;;;;;;10.01;100.00;100814.06;689064;28;1196;-76
2023/05/06 00:40:25;;;;;;;17.20;10.43;;;;;;;10.02;100.00;100821.91;684718;28;995;-75
2023/05/06 00:40:45;;;;;;;16.87;10.57;;;;;;;10.00;100.00;100828.00;683469;28;1137;-76
2023/05/06 00:41:07;;;;;;;16.30;10.23;;;;;;;10.00;100.00;100807.97;683570;28;2307;-76
2023/05/06 00:41:33;;;;;;;17.42;10.07;;;;;;;10.00;100.00;100834.09;685531;28;853;-76
2023/05/06 00:42:00;;;;;;;17.50;10.57;;;;;;;10.02;100.00;100810.59;685208;28;1297;-75
2023/05/06 00:42:24;;;;;;;17.83;10.70;;;;;;;10.02;100.00;100810.59;687836;28;1432;-76
2023/05/06 00:42:47;;;;;;;19.83;10.77;;;;;;;10.00;100.00;100841.94;684772;28;4410;-76
2023/05/06 00:43:11;;;;;;;19.07;10.90;;;;;;;9.98;100.00;100829.72;685298;28;1295;-76
2023/05/06 00:43:31;;;;;;;16.98;10.93;;;;;;;9.99;100.00;100818.44;684559;28;1316;-76
2023/05/06 00:43:52;;;;;;;16.33;10.55;;;;;;;9.98;100.00;100816.69;682466;28;3537;-76
2023/05/06 00:44:12;;;;;;;16.25;10.25;;;;;;;9.99;100.00;100806.22;686207;28;1315;-76
2023/05/06 00:44:38;;;;;;;16.83;10.38;;;;;;;9.99;100.00;100815.81;685055;28;1411;-76
2023/05/06 00:44:58;;;;;;;17.15;10.02;;;;;;;9.97;100.00;100822.75;687131;28;960;-76
2023/05/06 00:45:21;;;;;;;14.57;9.77;;;;;;;9.96;100.00;100805.38;682536;29;1287;-76
2023/05/06 00:45:42;;;;;;;15.53;9.87;;;;;;;9.95;100.00;100834.97;681861;28;4363;-76
2023/05/06 00:46:15;;;;;;;17.27;10.30;;;;;;;9.94;100.00;100835.81;685369;28;1415;-76
2023/05/06 00:46:39;;;;;;;15.40;10.18;;;;;;;9.95;100.00;100822.78;685338;28;1306;-76
2023/05/06 00:47:00;;;;;;;16.45;10.23;;;;;;;9.95;100.00;100808.84;683645;28;1131;-76
2023/05/06 00:47:21;;;;;;;17.20;10.35;;;;;;;9.95;100.00;100803.63;688097;28;1364;-76
2023/05/06 00:47:47;;;;;;;17.38;10.48;;;;;;;9.99;100.00;100805.38;686538;28;1428;-76
2023/05/06 00:48:08;;;;;;;17.60;10.25;;;;;;;9.98;100.00;100808.84;686234;28;833;-76
2023/05/06 00:48:37;;;;;;;17.45;10.65;;;;;;;9.97;100.00;100826.25;685287;28;1404;-76
2023/05/06 00:48:58;;;;;;;16.70;10.98;;;;;;;9.99;100.00;100828.88;682459;28;4983;-76
2023/05/06 00:49:22;;;;;;;16.40;10.10;;;;;;;9.98;100.00;100821.91;686792;28;1482;-76
2023/05/06 00:49:45;;;;;;;17.35;10.40;;;;;;;9.97;100.00;100813.22;690918;28;1407;-76
2023/05/06 00:50:07;;;;;;;17.77;10.35;;;;;;;9.99;100.00;100798.41;691884;28;1354;-75
2023/05/06 00:50:31;;;;;;;17.00;10.40;;;;;;;10.00;100.00;100817.56;685344;28;1349;-76
2023/05/06 00:50:52;;;;;;;16.92;10.30;;;;;;;10.00;100.00;100830.63;684458;28;929;-76
2023/05/06 00:51:15;;;;;;;16.30;10.48;;;;;;;10.01;100.00;100801.88;688411;28;1183;-76
2023/05/06 00:51:36;;;;;;;16.75;10.77;;;;;;;10.02;100.00;100837.59;685552;28;1509;-76
2023/05/06 00:52:00;;;;;;;17.45;10.65;;;;;;;10.03;100.00;100807.09;689037;28;4300;-75
2023/05/06 00:52:21;;;;;;;16.20;10.25;;;;;;;10.05;100.00;100805.34;685521;28;1301;-76
2023/05/06 00:52:42;;;;;;;17.95;10.60;;;;;;;10.03;100.00;100809.72;685856;28;1459;-76
2023/05/06 00:53:05;;;;;;;16.17;10.27;;;;;;;10.04;100.00;100806.25;684296;28;1169;-76
2023/05/06 00:53:25;;;;;;;16.25;10.07;;;;;;;10.02;100.00;100806.25;685890;28;1308;-75
2023/05/06 00:53:46;;;;;;;16.73;10.10;;;;;;;10.00;100.00;100833.25;684421;28;1019;-76
2023/05/06 00:54:09;;;;;;;16.87;10.17;;;;;;;9.99;100.00;100810.59;688485;28;1244;-76
2023/05/06 00:54:30;;;;;;;16.42;10.52;;;;;;;10.02;100.00;100808.88;685791;28;1229;-76
2023/05/06 00:54:51;;;;;;;16.70;10.20;;;;;;;10.01;100.00;100834.94;684024;28;4339;-76
2023/05/06 00:55:11;;;;;;;16.25;10.15;;;;;;;10.01;100.00;100803.59;686723;28;1336;-76
2023/05/06 00:55:34;;;;;;;17.98;10.27;;;;;;;10.01;100.00;100806.22;684152;28;1297;-76
2023/05/06 00:55:56;;;;;;;17.50;10.50;;;;;;;10.01;100.00;100814.94;684301;28;917;-75
2023/05/06 00:56:21;;;;;;;18.35;10.85;;;;;;;10.00;100.00;100807.13;689829;28;1414;-76
2023/05/06 00:56:42;;;;;;;18.08;10.35;;;;;;;10.01;100.00;100809.72;690960;28;1223;-76
2023/05/06 00:57:03;;;;;;;17.33;10.17;;;;;;;10.00;100.00;100814.97;686063;28;1215;-75
2023/05/06 00:57:24;;;;;;;17.10;10.68;;;;;;;9.98;100.00;100845.41;688026;28;1371;-76
2023/05/06 00:57:50;;;;;;;17.07;10.90;;;;;;;9.98;100.00;100814.06;681634;28;4365;-76
2023/05/06 00:58:12;;;;;;;17.95;10.43;;;;;;;9.98;100.00;100848.91;685306;28;1497;-76
2023/05/06 00:58:36;;;;;;;17.05;10.50;;;;;;;9.99;100.00;100831.47;688351;28;1469;-76
2023/05/06 00:58:59;;;;;;;18.15;11.35;;;;;;;10.00;100.00;100838.47;686842;28;1070;-76
2023/05/06 00:59:21;;;;;;;17.98;11.43;;;;;;;10.01;100.00;100808.84;685944;28;1276;-76
2023/05/06 00:59:42;;;;;;;17.52;10.93;;;;;;;10.00;100.00;100809.72;685005;28;1439;-76
2023/05/06 01:00:05;;;;;;;18.48;10.52;;;;;;;9.98;100.00;100816.69;686652;28;1237;-76
2023/05/06 01:00:28;;;;;;;19.85;10.95;;;;;;;9.94;100.00;100813.22;691052;28;1276;-76
2023/05/06 01:00:51;;;;;;;17.27;10.77;;;;;;;9.92;100.00;100811.47;688336;28;4311;-76
2023/05/06 01:01:16;;;;;;;18.52;11.48;;;;;;;9.94;100.00;100808.00;685629;28;1478;-76
2023/05/06 01:01:37;;;;;;;19.42;10.90;;;;;;;9.94;100.00;100834.09;685658;28;1226;-76
2023/05/06 01:02:00;;;;;;;18.70;10.70;;;;;;;9.96;100.00;100802.75;684117;28;2318;-76
2023/05/06 01:02:21;;;;;;;18.07;10.50;;;;;;;9.96;100.00;100818.44;684776;28;1264;-76
2023/05/06 01:02:42;;;;;;;17.85;10.15;;;;;;;9.94;100.00;100802.78;688258;28;1419;-76
2023/05/06 01:03:05;;;;;;;18.23;10.82;;;;;;;9.93;100.00;100832.34;684778;28;1241;-75
2023/05/06 01:03:26;;;;;;;17.65;10.88;;;;;;;9.91;100.00;100825.38;685402;28;1388;-76
2023/05/06 01:03:46;;;;;;;16.02;9.77;;;;;;;9.90;100.00;100829.75;684098;28;4393;-76
2023/05/06 01:04:07;;;;;;;15.95;10.20;;;;;;;9.91;100.00;100807.09;684637;28;950;-75
2023/05/06 01:04:36;;;;;;;16.65;10.25;;;;;;;9.94;100.00;100828.00;685468;28;1549;-76
2023/05/06 01:04:57;;;;;;;15.63;10.10;;;;;;;9.91;100.00;100834.09;687179;28;1259;-76
2023/05/06 01:05:21;;;;;;;15.48;10.13;;;;;;;9.91;100.00;100828.84;688325;28;1478;-76
2023/05/06 01:06:01;;;;;;;16.73;9.93;;;;;;;9.92;100.00;100830.59;685270;28;1308;-76
2023/05/06 01:06:42;;;;;;;17.13;10.40;;;;;;;9.94;100.00;100807.09;680515;28;1250;-76
2023/05/06 01:07:29;;;;;;;18.95;10.40;;;;;;;9.88;100.00;100810.59;674581;28;4802;-76
2023/05/06 01:08:05;;;;;;;15.30;9.48;;;;;;;9.83;100.00;100810.59;686029;28;1390;-76
2023/05/06 01:08:34;;;;;;;16.25;9.50;;;;;;;9.81;100.00;100807.09;688035;28;1367;-76
2023/05/06 01:09:16;;;;;;;15.50;9.52;;;;;;;9.83;100.00;100831.47;683026;28;2472;-75
2023/05/06 01:09:50;;;;;;;17.02;9.45;;;;;;;9.81;100.00;100807.09;686533;28;1292;-76
2023/05/06 01:10:52;;;;;;;14.70;9.65;;;;;;;9.78;100.00;100817.53;686181;28;4774;-76
2023/05/06 01:11:28;;;;;;;14.93;9.38;;;;;;;9.77;100.00;100802.75;692342;28;911;-75
2023/05/06 01:11:53;;;;;;;15.18;9.63;;;;;;;9.76;100.00;100813.19;687090;28;1996;-75
2023/05/06 01:12:28;;;;;;;13.95;9.32;;;;;;;9.76;100.00;100819.28;690595;28;802;-76
2023/05/06 01:13:13;;;;;;;14.52;8.85;;;;;;;9.77;100.00;100815.78;682187;28;4399;-76
2023/05/06 01:13:39;;;;;;;14.93;9.18;;;;;;;9.76;100.00;100806.25;690058;28;2678;-76
2023/05/06 01:14:27;;;;;;;15.35;9.40;;;;;;;9.74;100.00;100810.56;691807;28;1526;-76
2023/05/06 01:14:58;;;;;;;19.10;9.85;;;;;;;9.71;100.00;100806.22;689705;28;1307;-75
2023/05/06 01:15:26;;;;;;;18.42;10.05;;;;;;;9.65;100.00;100828.81;688445;28;1372;-76
2023/05/06 01:15:53;;;;;;;15.18;9.55;;;;;;;9.67;100.00;100829.72;685860;28;4485;-76
2023/05/06 01:16:17;;;;;;;15.10;9.35;;;;;;;9.68;100.00;100810.59;685593;28;2571;-76
2023/05/06 01:16:41;;;;;;;22.15;10.85;;;;;;;9.65;100.00;100848.00;686461;28;1250;-76
2023/05/06 01:17:08;;;;;;;27.10;10.18;;;;;;;9.67;100.00;100819.28;686359;28;1031;-76
2023/05/06 01:17:32;;;;;;;28.75;10.88;;;;;;;9.70;100.00;100809.69;685800;28;953;-76
2023/05/06 01:18:02;;;;;;;24.65;11.00;;;;;;;9.71;100.00;100831.47;681837;28;1339;-76
2023/05/06 01:18:27;;;;;;;24.02;10.52;;;;;;;9.71;100.00;100821.88;683476;28;1276;-76
2023/05/06 01:18:49;;;;;;;16.27;9.65;;;;;;;9.70;100.00;100803.59;684586;28;4368;-76
2023/05/06 01:19:33;;;;;;;15.88;9.63;;;;;;;9.70;100.00;100817.53;686902;28;2342;-76
2023/05/06 01:19:57;;;;;;;14.55;9.23;;;;;;;9.70;100.00;100825.34;690086;28;1390;-76
2023/05/06 01:20:23;;;;;;;13.32;8.68;;;;;;;9.68;100.00;100808.84;688446;28;1248;-76
2023/05/06 01:20:48;;;;;;;15.73;9.48;;;;;;;9.67;100.00;100807.09;686349;28;1363;-76
2023/05/06 01:21:11;;;;;;;14.88;9.02;;;;;;;9.65;100.00;100815.78;687131;28;1431;-76
2023/05/06 01:21:33;;;;;;;13.80;8.85;;;;;;;9.64;100.00;100819.28;686746;28;1304;-76
2023/05/06 01:22:00;;;;;;;17.30;9.13;;;;;;;9.64;100.00;100803.63;689210;28;4353;-76
2023/05/06 01:22:28;;;;;;;14.00;8.75;;;;;;;9.63;100.00;100826.22;688049;28;993;-76
2023/05/06 01:22:56;;;;;;;15.32;9.80;;;;;;;9.61;100.00;100840.13;686387;28;1037;-76
2023/05/06 01:23:20;;;;;;;15.52;10.13;;;;;;;9.60;100.00;100807.94;686098;28;869;-76
2023/05/06 01:23:58;;;;;;;14.80;9.30;;;;;;;9.60;100.00;100813.16;685691;28;1269;-75
2023/05/06 01:24:22;;;;;;;15.55;9.50;;;;;;;9.58;100.00;100838.41;688967;28;1316;-76
2023/05/06 01:24:48;;;;;;;15.80;9.43;;;;;;;9.60;100.00;100839.28;689340;28;4285;-76
2023/05/06 01:25:20;;;;;;;15.73;9.02;;;;;;;9.58;100.00;100822.75;689468;28;789;-76
2023/05/06 01:25:41;;;;;;;14.80;9.48;;;;;;;9.60;100.00;100833.19;688296;28;1398;-76
2023/05/06 01:26:07;;;;;;;15.60;9.50;;;;;;;9.59;100.00;100841.88;685405;28;1120;-76
2023/05/06 01:26:30;;;;;;;18.33;9.95;;;;;;;9.58;100.00;100840.13;690733;28;1302;-76
2023/05/06 01:26:51;;;;;;;16.45;9.23;;;;;;;9.58;100.00;100829.69;690009;28;1512;-76
2023/05/06 01:27:12;;;;;;;15.00;8.90;;;;;;;9.56;100.00;100818.41;688719;28;1295;-76
2023/05/06 01:27:33;;;;;;;16.92;9.68;;;;;;;9.56;100.00;100854.94;688237;28;1520;-76
2023/05/06 01:27:57;;;;;;;15.55;9.35;;;;;;;9.56;100.00;100836.66;678897;28;4424;-76
2023/05/06 01:28:18;;;;;;;15.53;9.53;;;;;;;9.56;100.00;100821.00;685733;28;1123;-76
2023/05/06 01:28:38;;;;;;;16.90;9.90;;;;;;;9.56;100.00;100829.69;685331;28;1213;-76
2023/05/06 01:29:01;;;;;;;16.37;9.80;;;;;;;9.53;100.00;100807.06;684565;28;1256;-75
2023/05/06 01:29:21;;;;;;;14.77;8.98;;;;;;;9.52;100.00;100823.56;685463;28;1021;-76
2023/05/06 01:29:48;;;;;;;13.73;8.97;;;;;;;9.54;100.00;100807.94;681988;29;2763;-76
2023/05/06 01:30:09;;;;;;;14.63;9.27;;;;;;;9.51;100.00;100824.47;683216;28;870;-76
2023/05/06 01:30:42;;;;;;;15.73;9.40;;;;;;;9.51;100.00;100806.19;688448;28;1398;-76
2023/05/06 01:31:10;;;;;;;15.20;9.20;;;;;;;9.50;100.00;100833.16;685126;28;4835;-76
2023/05/06 01:31:41;;;;;;;15.23;9.18;;;;;;;9.49;100.00;100826.19;689804;28;2832;-76
2023/05/06 01:32:17;;;;;;;14.32;8.82;;;;;;;9.50;100.00;100807.06;691590;28;1059;-76
2023/05/06 01:33:03;;;;;;;15.60;9.55;;;;;;;9.47;100.00;100801.84;690423;28;1056;-76
2023/05/06 01:33:43;;;;;;;16.02;9.60;;;;;;;9.44;100.00;100804.47;688592;28;1333;-76
2023/05/06 01:34:18;;;;;;;17.25;9.88;;;;;;;9.41;100.00;100807.03;690872;28;5067;-75
2023/05/06 01:34:47;;;;;;;15.45;9.65;;;;;;;9.37;100.00;100808.78;693379;28;1247;-76
2023/05/06 01:35:23;;;;;;;15.18;9.75;;;;;;;9.37;100.00;100807.88;687804;28;1244;-75
2023/05/06 01:35:57;;;;;;;17.02;9.48;;;;;;;9.35;100.00;100807.03;689472;28;815;-75
2023/05/06 01:36:28;;;;;;;17.35;9.55;;;;;;;9.37;100.00;100802.69;689926;28;928;-76
2023/05/06 01:37:09;;;;;;;14.90;9.50;;;;;;;9.36;100.00;100806.19;675788;28;4294;-76
2023/05/06 01:37:43;;;;;;;15.32;9.23;;;;;;;9.38;100.00;100812.25;689045;28;1005;-76
2023/05/06 01:38:51;;;;;;;14.50;8.73;;;;;;;9.39;100.00;100806.19;689357;28;1333;-76
2023/05/06 01:39:11;;;;;;;14.50;8.88;;;;;;;9.37;100.00;100811.41;685000;28;1410;-76
2023/05/06 01:39:32;;;;;;;13.80;8.90;;;;;;;9.36;100.00;100814.00;684737;28;2832;-75
2023/05/06 01:39:57;;;;;;;15.30;9.18;;;;;;;9.33;100.00;100809.66;683606;28;4328;-75
2023/05/06 01:40:19;;;;;;;14.32;8.88;;;;;;;9.33;100.00;100813.97;693406;28;1774;-76
2023/05/06 01:40:41;;;;;;;14.60;9.40;;;;;;;9.32;100.00;100807.03;689388;28;801;-76
2023/05/06 01:41:02;;;;;;;13.98;9.63;;;;;;;9.30;100.00;100811.34;690401;28;932;-76
2023/05/06 01:41:25;;;;;;;15.60;9.63;;;;;;;9.30;100.00;100804.38;694359;28;1277;-75
2023/05/06 01:41:48;;;;;;;15.82;9.50;;;;;;;9.32;100.00;100815.72;692018;28;1264;-76
2023/05/06 01:42:12;;;;;;;14.45;9.25;;;;;;;9.33;100.00;100813.97;687116;28;2522;-75
2023/05/06 01:42:34;;;;;;;15.38;9.25;;;;;;;9.32;100.00;100805.28;687201;28;1959;-75
2023/05/06 01:43:01;;;;;;;16.92;9.15;;;;;;;9.33;100.00;100806.13;685320;28;4298;-76
2023/05/06 01:43:25;;;;;;;13.35;8.63;;;;;;;9.35;100.00;100807.88;688209;28;1007;-76
2023/05/06 01:43:48;;;;;;;14.88;9.05;;;;;;;9.34;100.00;100802.69;690605;28;1562;-76
2023/05/06 01:44:10;;;;;;;16.85;9.25;;;;;;;9.31;100.00;100808.75;685802;28;1027;-77
2023/05/06 01:44:35;;;;;;;16.60;9.80;;;;;;;9.31;100.00;100797.47;685161;28;1410;-76
2023/05/06 01:44:57;;;;;;;15.75;9.77;;;;;;;9.31;100.00;100807.88;683874;28;2604;-76
2023/05/06 01:45:20;;;;;;;16.58;10.07;;;;;;;9.31;100.00;100806.13;684807;28;1079;-76
2023/05/06 01:45:41;;;;;;;16.55;9.55;;;;;;;9.30;100.00;100819.19;686874;28;4306;-76
2023/05/06 01:46:02;;;;;;;16.00;9.50;;;;;;;9.29;100.00;100804.38;685968;28;1259;-76
2023/05/06 01:46:25;;;;;;;16.63;9.40;;;;;;;9.28;100.00;100805.28;689366;28;960;-76
2023/05/06 01:46:48;;;;;;;14.40;9.43;;;;;;;9.27;100.00;100806.13;687833;28;1143;-76
2023/05/06 01:47:10;;;;;;;16.20;10.10;;;;;;;9.27;100.00;100804.38;687666;28;1352;-76
2023/05/06 01:47:32;;;;;;;16.02;9.55;;;;;;;9.29;100.00;100807.88;686538;28;952;-76
2023/05/06 01:47:53;;;;;;;15.38;9.52;;;;;;;9.30;100.00;100813.97;679354;28;1212;-76
2023/05/06 01:48:15;;;;;;;15.52;9.25;;;;;;;9.30;100.00;100808.75;685532;28;1316;-75
2023/05/06 01:48:38;;;;;;;16.70;9.98;;;;;;;9.32;100.00;100813.13;687123;28;1336;-76
2023/05/06 01:49:02;;;;;;;15.77;9.38;;;;;;;9.33;100.00;100808.75;683840;28;6377;-75
2023/05/06 01:49:24;;;;;;;14.98;9.43;;;;;;;9.31;100.00;100806.13;688201;28;1220;-76
2023/05/06 01:49:50;;;;;;;15.15;9.38;;;;;;;9.31;100.00;100805.28;686103;28;1223;-75
2023/05/06 01:50:10;;;;;;;14.73;9.10;;;;;;;9.33;100.00;100813.97;687877;28;1130;-76
2023/05/06 01:50:31;;;;;;;15.23;9.27;;;;;;;9.32;100.00;100807.03;684871;28;1377;-76
2023/05/06 01:50:54;;;;;;;14.93;9.68;;;;;;;9.31;100.00;100818.31;684052;28;1338;-76
2023/05/06 01:51:15;;;;;;;15.17;10.13;;;;;;;9.30;100.00;100806.13;685711;28;1147;-75
2023/05/06 01:51:35;;;;;;;14.85;9.07;;;;;;;9.28;100.00;100811.34;685086;28;1227;-76